Time;durP1;ratioP1;P1;durP2;ratioP2;P2;SDS_P1;SDS_P2;PMS_P1;PMS_P2;Temp;Humidity;BMP_temperature;BMP_pressure;BME280_temperature;BME280_humidity;BME280_pressure;Samples;Min_cycle;Max_cycle;Signal;HPM_P1;HPM_P2
2021/07/18 00:02:12;;;;;;;0.30;0.10;;;22.50;61.20;;;;;;4917206;28;20040;-85
2021/07/18 00:04:38;;;;;;;0.80;0.13;;;22.50;61.30;;;;;;4917457;29;20456;-84
2021/07/18 00:07:04;;;;;;;0.85;0.47;;;22.40;61.30;;;;;;4917612;29;20029;-85
2021/07/18 00:09:30;;;;;;;2.40;0.47;;;22.40;61.40;;;;;;4916082;29;20040;-84
2021/07/18 00:11:56;;;;;;;0.10;0.10;;;22.40;61.50;;;;;;4917183;29;20031;-85
2021/07/18 00:14:23;;;;;;;1.20;0.40;;;22.40;61.60;;;;;;4917410;29;20032;-85
2021/07/18 00:16:49;;;;;;;1.17;0.30;;;22.40;61.70;;;;;;4930686;28;20059;-85
2021/07/18 00:19:15;;;;;;;0.63;0.35;;;22.30;61.60;;;;;;4917720;29;20028;-84
2021/07/18 00:21:41;;;;;;;0.55;0.20;;;22.30;61.70;;;;;;4928282;29;20063;-84
2021/07/18 00:24:07;;;;;;;2.63;0.38;;;22.30;61.70;;;;;;4941665;29;20048;-84
2021/07/18 00:26:33;;;;;;;1.13;0.55;;;22.30;61.90;;;;;;4917318;29;20048;-84
2021/07/18 00:28:59;;;;;;;1.05;0.22;;;22.20;61.90;;;;;;4915805;29;20043;-82
2021/07/18 00:31:25;;;;;;;0.20;0.00;;;22.20;62.00;;;;;;4928799;28;20384;-84
2021/07/18 00:33:51;;;;;;;1.85;0.45;;;22.20;62.00;;;;;;4916781;29;20370;-85
2021/07/18 00:36:19;;;;;;;1.95;0.13;;;22.20;62.10;;;;;;4916453;29;20376;-85
2021/07/18 00:38:46;;;;;;;0.30;0.28;;;22.10;62.10;;;;;;4917556;28;20052;-84
2021/07/18 00:41:12;;;;;;;0.95;0.35;;;22.10;62.20;;;;;;4917495;29;20062;-82
2021/07/18 00:43:38;;;;;;;1.20;0.30;;;22.10;62.30;;;;;;4916931;29;20483;-84
2021/07/18 00:46:06;;;;;;;0.95;0.32;;;22.00;62.30;;;;;;4931421;28;20039;-84
2021/07/18 00:48:32;;;;;;;0.40;0.00;;;22.00;63.30;;;;;;4917361;28;20067;-82
2021/07/18 00:50:58;;;;;;;1.42;0.35;;;21.90;62.50;;;;;;4914993;29;20415;-84
2021/07/18 00:53:24;;;;;;;0.40;0.20;;;21.90;62.60;;;;;;4912411;29;20388;-85
2021/07/18 00:55:51;;;;;;;1.30;0.50;;;21.90;62.70;;;;;;4946203;28;20035;-84
2021/07/18 00:58:17;;;;;;;1.92;0.40;;;21.90;62.70;;;;;;4947891;28;20472;-85
2021/07/18 01:00:43;;;;;;;1.13;0.35;;;21.90;62.70;;;;;;4914686;28;20046;-84
2021/07/18 01:03:09;;;;;;;1.23;0.22;;;21.90;62.70;;;;;;4916281;29;20035;-84
2021/07/18 01:05:35;;;;;;;1.60;0.20;;;21.90;62.80;;;;;;4912210;29;20047;-85
2021/07/18 01:08:01;;;;;;;0.63;0.40;;;21.80;62.80;;;;;;4915009;29;20040;-84
2021/07/18 01:10:28;;;;;;;0.98;0.10;;;21.80;63.00;;;;;;4917263;29;20051;-84
2021/07/18 01:12:54;;;;;;;2.30;0.20;;;21.70;63.10;;;;;;4916213;29;20498;-85
2021/07/18 01:15:20;;;;;;;0.60;0.40;;;21.70;63.20;;;;;;4930291;28;20043;-84
2021/07/18 01:17:46;;;;;;;2.72;0.90;;;21.70;63.20;;;;;;4916046;29;20020;-85
2021/07/18 01:20:12;;;;;;;0.50;0.20;;;21.60;63.10;;;;;;4914467;29;20052;-84
2021/07/18 01:22:42;;;;;;;0.22;0.10;;;21.60;63.30;;;;;;4913305;29;20028;-84
2021/07/18 01:25:10;;;;;;;0.17;0.15;;;21.60;63.40;;;;;;4916471;29;20407;-83
2021/07/18 01:27:36;;;;;;;1.90;0.30;;;21.60;63.40;;;;;;4915792;29;20047;-85
2021/07/18 01:30:09;;;;;;;0.60;0.13;;;21.50;63.50;;;;;;4914699;28;20036;-83
2021/07/18 01:32:36;;;;;;;0.30;0.10;;;21.50;63.60;;;;;;4915808;29;20098;-85
2021/07/18 01:35:02;;;;;;;0.63;0.50;;;21.50;63.60;;;;;;4915613;29;20043;-86
2021/07/18 01:37:28;;;;;;;1.83;0.68;;;21.50;63.70;;;;;;4916545;29;20028;-83
2021/07/18 01:39:55;;;;;;;0.57;0.00;;;21.50;63.70;;;;;;4915841;29;20039;-85
2021/07/18 01:42:23;;;;;;;1.05;0.52;;;21.50;63.60;;;;;;4914698;29;20032;-84
2021/07/18 01:44:50;;;;;;;1.75;0.47;;;21.50;63.70;;;;;;4913711;29;20039;-83
2021/07/18 01:47:16;;;;;;;0.55;0.20;;;21.50;63.80;;;;;;4914140;28;20039;-83
2021/07/18 01:49:42;;;;;;;0.25;0.05;;;21.40;63.80;;;;;;4912974;29;20040;-84
2021/07/18 01:52:08;;;;;;;0.70;0.30;;;21.40;63.90;;;;;;4916293;29;20032;-85
2021/07/18 01:54:35;;;;;;;0.22;0.08;;;21.40;64.00;;;;;;4915747;29;20040;-85
2021/07/18 01:57:14;;;;;;;1.83;0.40;;;21.30;64.20;;;;;;4930254;29;20024;-85
2021/07/18 01:59:40;;;;;;;0.50;0.25;;;21.30;64.50;;;;;;4916202;28;20515;-84
2021/07/18 02:02:06;;;;;;;0.98;0.20;;;21.20;64.80;;;;;;4928224;28;20039;-85
2021/07/18 02:04:33;;;;;;;2.60;0.35;;;21.10;64.90;;;;;;4947966;28;20044;-84
2021/07/18 02:06:59;;;;;;;0.68;0.47;;;21.10;65.10;;;;;;4949689;28;20046;-84
2021/07/18 02:09:25;;;;;;;24.35;0.60;;;21.00;65.10;;;;;;4934925;29;20107;-83
2021/07/18 02:11:51;;;;;;;1.40;0.52;;;21.00;65.10;;;;;;4924310;29;20423;-84
2021/07/18 02:14:17;;;;;;;0.50;0.30;;;21.00;65.20;;;;;;4948886;28;20038;-83
2021/07/18 02:16:43;;;;;;;2.88;0.35;;;21.00;65.20;;;;;;4917361;28;20483;-84
2021/07/18 02:19:10;;;;;;;0.40;0.20;;;21.00;65.40;;;;;;4917898;29;20040;-85
2021/07/18 02:21:38;;;;;;;0.63;0.30;;;20.90;65.60;;;;;;4964820;28;20491;-83
2021/07/18 02:24:04;;;;;;;2.15;0.65;;;20.80;65.80;;;;;;4917917;29;20047;-85
2021/07/18 02:26:30;;;;;;;0.60;0.40;;;20.80;66.00;;;;;;4947800;28;20039;-84
2021/07/18 02:28:57;;;;;;;0.77;0.63;;;20.80;66.00;;;;;;4948177;28;20036;-83
2021/07/18 02:31:23;;;;;;;2.65;0.68;;;20.80;66.20;;;;;;4932738;28;20040;-85
2021/07/18 02:33:49;;;;;;;1.75;0.57;;;20.70;66.30;;;;;;4947852;28;20044;-84
2021/07/18 02:36:15;;;;;;;0.52;0.30;;;20.70;66.30;;;;;;4917549;29;20036;-84
2021/07/18 02:38:41;;;;;;;0.45;0.13;;;20.70;66.40;;;;;;4919067;29;20032;-84
2021/07/18 02:41:07;;;;;;;1.25;0.40;;;20.70;66.50;;;;;;4933846;29;20495;-84
2021/07/18 02:43:34;;;;;;;2.20;0.43;;;20.70;66.40;;;;;;4915383;29;20040;-83
2021/07/18 02:46:00;;;;;;;8.75;0.57;;;20.70;66.40;;;;;;4949385;28;20043;-85
2021/07/18 02:48:26;;;;;;;3.50;0.73;;;20.80;66.50;;;;;;4917233;29;20032;-85
2021/07/18 02:50:52;;;;;;;0.68;0.15;;;20.70;66.50;;;;;;4917191;29;20403;-82
2021/07/18 02:53:18;;;;;;;1.02;0.52;;;20.70;66.50;;;;;;4949237;29;20047;-83
2021/07/18 02:55:44;;;;;;;0.73;0.40;;;20.70;66.70;;;;;;4918592;29;20360;-85
2021/07/18 02:58:10;;;;;;;0.50;0.32;;;20.70;66.80;;;;;;4949813;29;20036;-84
2021/07/18 03:00:36;;;;;;;5.28;0.40;;;20.70;66.90;;;;;;4917970;28;20028;-83
2021/07/18 03:03:03;;;;;;;1.20;0.93;;;20.60;67.10;;;;;;4932823;29;20408;-85
2021/07/18 03:05:29;;;;;;;0.60;0.25;;;20.60;67.20;;;;;;4914144;29;20036;-85
2021/07/18 03:07:55;;;;;;;1.25;0.20;;;20.60;67.40;;;;;;4918150;29;20044;-85
2021/07/18 03:10:21;;;;;;;1.13;0.38;;;20.50;67.40;;;;;;4919026;29;20032;-84
2021/07/18 03:12:47;;;;;;;0.32;0.10;;;20.50;67.60;;;;;;4918544;29;20032;-84
2021/07/18 03:15:15;;;;;;;1.30;0.20;;;20.40;67.60;;;;;;4922334;28;20040;-85
2021/07/18 03:17:41;;;;;;;0.52;0.08;;;20.40;67.80;;;;;;4925139;28;20036;-86
2021/07/18 03:20:09;;;;;;;0.20;0.10;;;20.40;67.90;;;;;;4919785;29;20024;-85
2021/07/18 03:22:35;;;;;;;3.00;0.38;;;20.40;67.90;;;;;;4914789;29;20028;-83
2021/07/18 03:25:02;;;;;;;2.85;0.25;;;20.40;67.90;;;;;;4918423;29;20487;-83
2021/07/18 03:27:28;;;;;;;0.40;0.10;;;20.40;67.90;;;;;;4916956;29;20028;-84
2021/07/18 03:29:54;;;;;;;0.40;0.10;;;20.40;68.00;;;;;;4916657;29;20036;-84
2021/07/18 03:32:20;;;;;;;0.32;0.05;;;20.50;68.10;;;;;;4917310;28;20400;-84
2021/07/18 03:34:47;;;;;;;0.32;0.20;;;20.40;68.00;;;;;;4932224;29;20055;-83
2021/07/18 03:37:13;;;;;;;0.35;0.20;;;20.40;68.00;;;;;;4948872;29;20028;-84
2021/07/18 03:39:40;;;;;;;0.28;0.10;;;20.40;68.00;;;;;;4932597;29;20032;-84
2021/07/18 03:42:06;;;;;;;2.78;0.65;;;20.40;68.00;;;;;;4917892;29;20036;-83
2021/07/18 03:44:32;;;;;;;1.67;0.30;;;20.40;68.00;;;;;;4917892;29;20047;-82
2021/07/18 03:46:58;;;;;;;0.30;0.17;;;20.40;68.10;;;;;;4917152;28;20032;-84
2021/07/18 03:49:24;;;;;;;0.88;0.47;;;20.40;68.10;;;;;;4918205;29;20391;-84
2021/07/18 03:51:50;;;;;;;1.05;0.10;;;20.40;68.90;;;;;;4916710;29;20032;-84
2021/07/18 03:54:16;;;;;;;1.00;0.20;;;20.40;69.00;;;;;;4932271;29;20392;-85
2021/07/18 03:56:42;;;;;;;2.65;0.30;;;20.40;68.20;;;;;;4917699;29;20032;-84
2021/07/18 03:59:08;;;;;;;0.60;0.40;;;20.40;68.30;;;;;;4917131;29;20514;-85
2021/07/18 04:01:34;;;;;;;0.90;0.30;;;20.40;68.30;;;;;;4929503;28;20029;-84
2021/07/18 04:04:00;;;;;;;2.63;0.73;;;20.40;68.30;;;;;;4917777;29;20498;-84
2021/07/18 04:06:27;;;;;;;0.43;0.20;;;20.40;68.40;;;;;;4916247;29;20051;-84
2021/07/18 04:08:53;;;;;;;0.30;0.10;;;20.40;68.50;;;;;;4915722;29;20036;-84
2021/07/18 04:11:19;;;;;;;3.70;0.10;;;20.30;68.40;;;;;;4917442;29;20032;-84
2021/07/18 04:13:45;;;;;;;0.10;0.00;;;20.30;68.40;;;;;;4916920;29;20028;-83
2021/07/18 04:16:11;;;;;;;0.47;0.10;;;20.30;68.40;;;;;;4917610;28;20040;-83
2021/07/18 04:18:37;;;;;;;3.33;0.45;;;20.30;68.60;;;;;;4917175;29;20032;-84
2021/07/18 04:21:03;;;;;;;0.45;0.30;;;20.30;68.60;;;;;;4917114;29;20032;-85
2021/07/18 04:23:29;;;;;;;0.35;0.20;;;20.30;68.80;;;;;;4917092;29;20047;-84
2021/07/18 04:25:55;;;;;;;0.75;0.28;;;20.20;68.90;;;;;;4916005;29;20415;-85
2021/07/18 04:28:21;;;;;;;0.32;0.20;;;20.20;69.00;;;;;;4917287;29;20036;-85
2021/07/18 04:30:47;;;;;;;0.15;0.15;;;20.10;69.10;;;;;;4915936;28;20039;-84
2021/07/18 04:33:14;;;;;;;0.88;0.38;;;20.10;69.10;;;;;;4916830;29;20032;-83
2021/07/18 04:35:40;;;;;;;0.40;0.20;;;20.10;69.20;;;;;;4913546;29;20044;-83
2021/07/18 04:38:09;;;;;;;9.68;0.20;;;20.10;69.20;;;;;;4915716;29;20038;-84
2021/07/18 04:40:35;;;;;;;1.25;0.52;;;20.10;69.50;;;;;;4917054;29;20364;-84
2021/07/18 04:43:01;;;;;;;0.35;0.05;;;20.10;69.10;;;;;;4946557;29;20039;-84
2021/07/18 04:45:27;;;;;;;4.47;0.30;;;20.10;69.00;;;;;;4946723;28;20037;-84
2021/07/18 04:47:55;;;;;;;0.30;0.10;;;20.10;69.10;;;;;;4916546;29;20040;-84
2021/07/18 04:50:22;;;;;;;0.30;0.10;;;20.10;69.10;;;;;;4916584;29;20028;-83
2021/07/18 04:52:49;;;;;;;1.35;0.10;;;20.20;69.10;;;;;;4914733;29;20051;-84
2021/07/18 04:55:15;;;;;;;0.10;0.05;;;20.20;69.10;;;;;;4917082;29;20051;-83
2021/07/18 04:57:41;;;;;;;7.15;0.35;;;20.20;69.00;;;;;;4914951;29;20387;-84
2021/07/18 05:00:08;;;;;;;1.77;0.43;;;20.20;69.00;;;;;;4914785;28;20036;-87
2021/07/18 05:02:34;;;;;;;0.45;0.13;;;20.20;69.00;;;;;;4912331;29;20029;-84
2021/07/18 05:05:01;;;;;;;0.25;0.25;;;20.30;69.00;;;;;;4916226;29;20048;-84
2021/07/18 05:07:27;;;;;;;0.98;0.20;;;20.30;69.10;;;;;;4912643;29;20048;-83
2021/07/18 05:09:53;;;;;;;0.63;0.10;;;20.30;69.10;;;;;;4916309;29;20052;-85
2021/07/18 05:12:19;;;;;;;3.58;0.95;;;20.20;69.10;;;;;;4915821;29;20032;-84
2021/07/18 05:14:46;;;;;;;1.30;0.25;;;20.20;69.20;;;;;;4946684;29;20155;-83
2021/07/18 05:17:13;;;;;;;0.57;0.20;;;20.20;69.20;;;;;;4916804;28;20527;-84
2021/07/18 05:19:39;;;;;;;0.30;0.10;;;20.30;69.30;;;;;;4916213;29;20035;-84
2021/07/18 05:22:06;;;;;;;0.20;0.20;;;20.40;69.20;;;;;;4947083;29;20039;-84
2021/07/18 05:24:33;;;;;;;0.30;0.20;;;20.50;68.90;;;;;;4915975;29;20040;-85
2021/07/18 05:26:59;;;;;;;0.35;0.10;;;20.60;68.80;;;;;;4915581;29;20028;-84
2021/07/18 05:29:25;;;;;;;0.73;0.47;;;20.70;68.70;;;;;;4911700;29;20020;-85
2021/07/18 05:31:51;;;;;;;1.33;0.30;;;20.70;68.70;;;;;;4914704;28;20059;-84
2021/07/18 05:34:17;;;;;;;1.17;0.10;;;20.80;68.60;;;;;;4916530;29;20024;-84
2021/07/18 05:36:43;;;;;;;0.43;0.30;;;20.90;68.50;;;;;;4914619;29;20036;-84
2021/07/18 05:39:09;;;;;;;0.25;0.15;;;21.00;68.40;;;;;;4915817;29;20032;-84
2021/07/18 05:41:36;;;;;;;0.57;0.20;;;21.10;68.20;;;;;;4914670;29;20028;-84
2021/07/18 05:44:02;;;;;;;0.38;0.15;;;21.20;68.10;;;;;;4914653;29;20044;-84
2021/07/18 05:46:28;;;;;;;0.57;0.40;;;21.40;68.00;;;;;;4915972;28;20032;-84
2021/07/18 05:48:54;;;;;;;0.50;0.20;;;21.50;67.70;;;;;;4915539;29;20031;-83
2021/07/18 05:51:20;;;;;;;0.00;0.00;;;21.60;67.50;;;;;;4914388;29;20040;-84
2021/07/18 05:53:46;;;;;;;0.10;0.00;;;21.70;67.30;;;;;;4916382;28;20032;-85
2021/07/18 05:56:12;;;;;;;0.50;0.25;;;21.70;67.40;;;;;;4915361;29;20024;-84
2021/07/18 05:58:38;;;;;;;0.15;0.10;;;21.70;67.50;;;;;;4915713;29;20047;-82
2021/07/18 06:01:04;;;;;;;2.55;0.10;;;21.70;67.50;;;;;;4945941;28;20028;-85
2021/07/18 06:03:32;;;;;;;1.55;0.45;;;21.90;67.50;;;;;;4914479;29;20036;-85
2021/07/18 06:05:58;;;;;;;1.80;0.57;;;21.90;67.20;;;;;;4915512;29;20040;-85
2021/07/18 06:08:24;;;;;;;0.10;0.00;;;22.00;67.20;;;;;;4930174;29;20040;-83
2021/07/18 06:10:50;;;;;;;0.10;0.00;;;22.10;67.10;;;;;;4915297;29;20534;-85
2021/07/18 06:13:16;;;;;;;0.75;0.17;;;22.20;66.70;;;;;;4946685;29;20036;-84
2021/07/18 06:15:42;;;;;;;0.35;0.10;;;22.40;66.50;;;;;;4915062;28;20040;-84
2021/07/18 06:18:08;;;;;;;0.22;0.10;;;22.50;66.20;;;;;;4914305;29;20036;-84
2021/07/18 06:20:38;;;;;;;0.90;0.20;;;22.60;66.10;;;;;;4915457;29;20028;-86
2021/07/18 06:23:05;;;;;;;0.32;0.22;;;22.70;65.90;;;;;;4916340;28;20415;-85
2021/07/18 06:25:31;;;;;;;1.15;0.45;;;22.70;65.80;;;;;;4915322;29;20040;-84
2021/07/18 06:27:58;;;;;;;0.40;0.10;;;22.70;65.80;;;;;;4915698;29;20040;-83
2021/07/18 06:30:24;;;;;;;0.13;0.10;;;22.70;66.00;;;;;;4914987;28;20032;-85
2021/07/18 06:32:50;;;;;;;0.40;0.00;;;22.80;66.00;;;;;;4913477;29;20052;-84
2021/07/18 06:35:16;;;;;;;0.55;0.15;;;22.90;65.90;;;;;;4915348;29;20028;-85
2021/07/18 06:37:42;;;;;;;0.10;0.10;;;22.90;65.80;;;;;;4912728;29;20392;-85
2021/07/18 06:40:09;;;;;;;0.00;0.00;;;22.90;65.80;;;;;;4915611;29;20032;-85
2021/07/18 06:42:35;;;;;;;0.13;0.10;;;23.00;65.70;;;;;;4915287;29;20036;-85
2021/07/18 06:45:02;;;;;;;0.00;0.00;;;23.10;65.40;;;;;;4929706;29;20056;-85
2021/07/18 06:47:28;;;;;;;0.20;0.00;;;23.20;65.30;;;;;;4910175;29;20043;-83
2021/07/18 06:49:55;;;;;;;0.28;0.00;;;23.30;65.10;;;;;;4914827;29;20040;-84
2021/07/18 06:52:21;;;;;;;0.22;0.00;;;23.30;65.00;;;;;;4946130;29;20028;-85
2021/07/18 06:54:47;;;;;;;0.15;0.10;;;23.40;64.80;;;;;;4948567;28;20040;-85
2021/07/18 06:57:13;;;;;;;0.55;0.10;;;23.50;64.70;;;;;;4918645;29;20036;-86
2021/07/18 06:59:39;;;;;;;0.10;0.10;;;23.50;64.60;;;;;;4918620;29;20032;-85
2021/07/18 07:02:05;;;;;;;0.13;0.10;;;23.60;64.40;;;;;;4918548;28;20039;-85
2021/07/18 07:04:31;;;;;;;0.52;0.10;;;23.60;64.40;;;;;;4914785;29;20047;-85
2021/07/18 07:06:58;;;;;;;0.40;0.10;;;23.60;64.40;;;;;;4918647;29;20044;-86
2021/07/18 07:09:24;;;;;;;0.10;0.10;;;23.60;64.30;;;;;;4918228;29;20036;-86
2021/07/18 07:11:50;;;;;;;1.38;0.13;;;23.60;64.20;;;;;;4918603;29;20214;-85
2021/07/18 07:14:16;;;;;;;0.00;0.00;;;23.70;64.20;;;;;;4918394;29;20036;-85
2021/07/18 07:16:42;;;;;;;0.25;0.00;;;23.80;64.00;;;;;;4931456;28;20032;-84
2021/07/18 07:19:10;;;;;;;0.20;0.20;;;23.90;63.90;;;;;;4918672;29;20032;-84
2021/07/18 07:21:36;;;;;;;0.45;0.10;;;23.90;63.70;;;;;;4917125;29;20024;-85
2021/07/18 07:24:03;;;;;;;0.15;0.13;;;24.00;63.50;;;;;;4917087;29;20044;-85
2021/07/18 07:26:29;;;;;;;0.93;0.40;;;24.10;63.20;;;;;;4929905;29;20403;-85
2021/07/18 07:28:55;;;;;;;0.35;0.22;;;24.20;63.10;;;;;;4964661;28;20036;-84
2021/07/18 07:31:21;;;;;;;0.38;0.20;;;24.30;62.70;;;;;;4918180;28;20047;-86
2021/07/18 07:33:47;;;;;;;1.60;0.08;;;24.40;62.60;;;;;;4917981;29;20033;-85
2021/07/18 07:36:15;;;;;;;0.10;0.00;;;24.40;62.50;;;;;;4916867;29;20435;-85
2021/07/18 07:38:41;;;;;;;0.30;0.15;;;24.40;62.40;;;;;;4917677;29;20032;-86
2021/07/18 07:41:08;;;;;;;0.00;0.00;;;24.50;62.30;;;;;;4948341;29;20040;-84
2021/07/18 07:43:34;;;;;;;9.15;0.30;;;24.60;62.20;;;;;;4918902;28;20036;-86
2021/07/18 07:46:00;;;;;;;0.10;0.10;;;24.60;61.90;;;;;;4932449;28;20055;-85
2021/07/18 07:48:26;;;;;;;0.60;0.10;;;24.80;61.80;;;;;;4918577;28;20040;-87
2021/07/18 07:50:53;;;;;;;0.10;0.00;;;25.00;61.40;;;;;;4917490;29;20044;-85
2021/07/18 07:53:19;;;;;;;0.30;0.00;;;25.10;61.10;;;;;;4916613;29;20045;-86
2021/07/18 07:55:45;;;;;;;1.88;0.17;;;25.10;60.80;;;;;;4915344;29;20044;-86
2021/07/18 07:58:11;;;;;;;0.73;0.40;;;25.20;60.80;;;;;;4948656;29;20474;-86
2021/07/18 08:00:37;;;;;;;0.10;0.00;;;25.30;60.70;;;;;;4917140;28;20032;-87
2021/07/18 08:03:04;;;;;;;0.47;0.28;;;25.50;60.40;;;;;;4948008;29;20044;-86
2021/07/18 08:05:30;;;;;;;0.28;0.05;;;25.60;60.20;;;;;;4916540;29;20475;-86
2021/07/18 08:07:56;;;;;;;0.03;0.00;;;25.70;60.00;;;;;;4916342;29;20059;-85
2021/07/18 08:10:23;;;;;;;0.40;0.10;;;25.80;59.80;;;;;;4917895;29;20028;-86
2021/07/18 08:12:49;;;;;;;0.52;0.40;;;26.00;59.50;;;;;;4917841;29;20044;-86
2021/07/18 08:15:16;;;;;;;0.08;0.00;;;26.10;59.30;;;;;;4916917;28;20032;-86
2021/07/18 08:17:42;;;;;;;0.30;0.08;;;26.10;59.30;;;;;;4913977;29;20043;-85
2021/07/18 08:20:15;;;;;;;0.10;0.00;;;26.10;59.20;;;;;;4916034;29;20043;-86
2021/07/18 08:22:42;;;;;;;0.13;0.10;;;26.20;58.90;;;;;;4918137;28;20506;-86
2021/07/18 08:25:08;;;;;;;0.13;0.00;;;26.20;58.80;;;;;;4917426;29;20032;-87
2021/07/18 08:27:35;;;;;;;0.57;0.10;;;26.40;58.70;;;;;;4915828;29;20032;-85
2021/07/18 08:30:02;;;;;;;0.15;0.10;;;26.50;58.50;;;;;;4917755;29;20340;-86
2021/07/18 08:32:29;;;;;;;1.88;0.28;;;26.50;58.30;;;;;;4916458;29;20043;-86
2021/07/18 08:34:55;;;;;;;0.00;0.00;;;26.60;58.20;;;;;;4916772;29;20039;-87
2021/07/18 08:37:21;;;;;;;0.20;0.20;;;26.70;58.20;;;;;;4917414;29;20024;-85
2021/07/18 08:39:47;;;;;;;0.38;0.15;;;26.80;58.00;;;;;;4915676;29;20036;-86
2021/07/18 08:42:15;;;;;;;2.92;0.10;;;26.80;57.80;;;;;;4917000;29;20422;-86
2021/07/18 08:44:41;;;;;;;0.20;0.03;;;26.90;57.60;;;;;;4928800;29;20032;-86
2021/07/18 08:47:08;;;;;;;0.05;0.00;;;27.00;57.50;;;;;;4916492;28;20043;-86
2021/07/18 08:49:34;;;;;;;0.10;0.00;;;27.10;57.40;;;;;;4947276;28;20032;-85
2021/07/18 08:52:00;;;;;;;0.50;0.20;;;27.20;57.30;;;;;;4947350;29;20051;-85
2021/07/18 08:54:26;;;;;;;0.20;0.00;;;27.30;57.10;;;;;;4912465;29;20029;-89
2021/07/18 08:56:55;;;;;;;0.28;0.10;;;27.50;56.90;;;;;;4939125;29;20036;-84
2021/07/18 08:59:22;;;;;;;0.03;0.00;;;27.70;56.70;;;;;;4931609;29;20040;-86
2021/07/18 09:01:48;;;;;;;0.43;0.10;;;27.70;56.50;;;;;;4915955;28;20036;-86
2021/07/18 09:04:14;;;;;;;0.30;0.20;;;27.70;56.30;;;;;;4916552;29;20031;-85
2021/07/18 09:06:47;;;;;;;1.17;0.22;;;27.80;56.40;;;;;;4916228;29;20403;-85
2021/07/18 09:09:15;;;;;;;0.55;0.25;;;27.80;56.20;;;;;;4916374;29;20047;-86
2021/07/18 09:11:42;;;;;;;0.75;0.10;;;27.90;56.20;;;;;;4917006;28;20040;-86
2021/07/18 09:14:08;;;;;;;0.73;0.30;;;28.00;55.90;;;;;;4915303;29;20039;-86
2021/07/18 09:16:35;;;;;;;0.25;0.08;;;28.10;55.80;;;;;;4915704;28;20032;-87
2021/07/18 09:19:21;;;;;;;0.00;0.00;;;28.10;55.60;;;;;;4946661;29;20036;-87
2021/07/18 09:21:57;;;;;;;0.25;0.05;;;28.20;55.40;;;;;;4931329;29;20035;-86
2021/07/18 09:24:24;;;;;;;0.00;0.00;;;28.30;55.30;;;;;;4915211;29;20040;-85
2021/07/18 09:27:14;;;;;;;0.10;0.00;;;28.30;55.20;;;;;;4929851;29;20056;-86
2021/07/18 09:29:42;;;;;;;0.35;0.00;;;28.40;55.30;;;;;;4915863;29;20039;-86
2021/07/18 09:32:28;;;;;;;0.35;0.00;;;28.50;55.10;;;;;;4930782;28;20032;-86
2021/07/18 09:34:58;;;;;;;0.30;0.10;;;28.60;54.80;;;;;;4916509;28;20044;-87
2021/07/18 09:37:28;;;;;;;0.07;0.03;;;28.70;54.60;;;;;;4947107;29;20464;-87
2021/07/18 09:40:08;;;;;;;0.10;0.00;;;28.80;54.30;;;;;;4914586;29;20388;-88
2021/07/18 09:42:44;;;;;;;1.45;0.20;;;28.90;54.10;;;;;;4914922;29;20043;-84
2021/07/18 09:45:15;;;;;;;0.00;0.00;;;28.90;53.90;;;;;;4945931;28;20499;-86
2021/07/18 09:47:58;;;;;;;0.10;0.00;;;28.80;53.90;;;;;;4916295;29;20055;-86
2021/07/18 09:50:28;;;;;;;1.08;0.20;;;28.80;53.80;;;;;;4916619;29;20036;-86
2021/07/18 09:53:14;;;;;;;0.35;0.05;;;28.80;53.70;;;;;;4916571;29;20457;-88
2021/07/18 09:55:58;;;;;;;0.03;0.00;;;28.90;54.10;;;;;;4944687;28;20048;-86
2021/07/18 09:58:24;;;;;;;0.40;0.17;;;29.00;53.50;;;;;;4916109;29;20059;-85
2021/07/18 10:00:50;;;;;;;0.10;0.05;;;29.10;53.40;;;;;;4915981;28;20036;-86
2021/07/18 10:03:23;;;;;;;0.28;0.00;;;29.20;53.10;;;;;;4915337;29;20043;-86
2021/07/18 10:06:11;;;;;;;0.20;0.10;;;29.30;53.00;;;;;;4929675;29;20051;-87
2021/07/18 10:08:42;;;;;;;0.65;0.10;;;29.40;52.30;;;;;;4915361;29;20423;-85
2021/07/18 10:11:10;;;;;;;0.10;0.10;;;29.30;52.00;;;;;;4930710;29;20044;-84
2021/07/18 10:13:37;;;;;;;0.00;0.00;;;29.40;52.20;;;;;;4915780;29;20031;-87
2021/07/18 10:16:04;;;;;;;0.93;0.25;;;29.40;52.00;;;;;;4915696;28;20047;-86
2021/07/18 10:18:30;;;;;;;0.03;0.00;;;29.60;52.00;;;;;;4929785;29;20070;-87
2021/07/18 10:20:58;;;;;;;0.40;0.00;;;29.70;51.70;;;;;;4930043;29;20036;-86
2021/07/18 10:23:25;;;;;;;0.17;0.00;;;29.90;51.60;;;;;;4914959;29;20047;-85
2021/07/18 10:25:52;;;;;;;0.50;0.20;;;30.10;51.30;;;;;;4916105;28;20515;-86
2021/07/18 10:28:25;;;;;;;0.20;0.20;;;30.20;51.10;;;;;;4963320;28;20032;-86
2021/07/18 10:30:51;;;;;;;0.00;0.00;;;30.20;50.80;;;;;;4949087;28;20044;-84
2021/07/18 10:33:18;;;;;;;0.85;0.10;;;30.10;50.60;;;;;;4918030;29;20407;-87
2021/07/18 10:35:45;;;;;;;0.30;0.10;;;30.20;50.60;;;;;;4932094;29;20063;-87
2021/07/18 10:38:19;;;;;;;0.00;0.00;;;30.20;50.30;;;;;;4917912;29;20024;-86
2021/07/18 10:40:49;;;;;;;0.22;0.10;;;30.20;49.90;;;;;;4932750;29;20032;-86
2021/07/18 10:43:40;;;;;;;0.00;0.00;;;30.10;49.80;;;;;;4950171;29;20032;-87
2021/07/18 10:46:10;;;;;;;0.10;0.10;;;30.10;49.90;;;;;;4918066;28;20424;-86
2021/07/18 10:48:46;;;;;;;0.10;0.00;;;30.10;49.80;;;;;;4914602;29;20041;-86
2021/07/18 10:51:14;;;;;;;0.30;0.05;;;30.10;49.10;;;;;;4913265;29;20040;-86
2021/07/18 10:53:40;;;;;;;0.00;0.00;;;30.20;49.10;;;;;;4918374;29;20057;-86
2021/07/18 10:56:07;;;;;;;2.47;0.10;;;30.20;49.10;;;;;;4917816;29;20032;-86
2021/07/18 10:58:39;;;;;;;0.00;0.00;;;30.30;48.90;;;;;;4919857;28;20411;-87
2021/07/18 11:01:05;;;;;;;0.32;0.05;;;30.30;48.70;;;;;;4918495;28;20036;-87
2021/07/18 11:03:35;;;;;;;0.85;0.20;;;30.40;48.30;;;;;;4918573;29;20028;-86
2021/07/18 11:06:25;;;;;;;0.80;0.10;;;30.50;48.10;;;;;;4917723;29;20048;-86
2021/07/18 11:09:13;;;;;;;0.10;0.00;;;30.60;47.80;;;;;;4919079;29;20399;-86
2021/07/18 11:11:44;;;;;;;0.00;0.00;;;30.60;47.70;;;;;;4949081;29;20056;-87
2021/07/18 11:14:40;;;;;;;0.00;0.00;;;30.60;47.50;;;;;;4918241;29;20032;-86
2021/07/18 11:17:07;;;;;;;0.10;0.00;;;30.70;47.50;;;;;;4901130;29;20032;-84
2021/07/18 11:19:39;;;;;;;0.00;0.00;;;30.80;47.50;;;;;;4914578;29;20032;-85
2021/07/18 11:22:08;;;;;;;0.03;0.00;;;30.90;47.20;;;;;;4919621;28;20527;-85
2021/07/18 11:24:54;;;;;;;0.20;0.00;;;30.80;46.80;;;;;;4917141;29;20036;-88
2021/07/18 11:27:28;;;;;;;0.00;0.00;;;30.80;46.70;;;;;;4918897;28;20459;-81
2021/07/18 11:29:55;;;;;;;0.17;0.00;;;30.80;46.30;;;;;;4915485;29;20042;-85
2021/07/18 11:32:23;;;;;;;0.00;0.00;;;30.80;46.10;;;;;;4932922;28;20043;-85
2021/07/18 11:34:49;;;;;;;0.00;0.00;;;30.80;45.60;;;;;;4917111;29;20353;-85
2021/07/18 11:37:15;;;;;;;0.10;0.00;;;30.70;45.60;;;;;;4919083;29;20040;-86
2021/07/18 11:39:43;;;;;;;0.00;0.00;;;30.70;45.30;;;;;;4918596;28;20415;-86
2021/07/18 11:42:11;;;;;;;0.00;0.00;;;30.70;45.30;;;;;;4913896;29;20056;-86
2021/07/18 11:44:39;;;;;;;0.47;0.17;;;30.80;45.10;;;;;;4929977;29;20048;-86
2021/07/18 11:47:11;;;;;;;0.10;0.00;;;30.90;44.70;;;;;;4916775;28;20048;-86
2021/07/18 11:49:40;;;;;;;0.00;0.00;;;31.00;44.50;;;;;;4918510;29;20040;-85
2021/07/18 11:52:07;;;;;;;0.10;0.00;;;31.00;44.50;;;;;;4918396;29;20035;-86
2021/07/18 11:54:33;;;;;;;0.00;0.00;;;31.00;44.00;;;;;;4916559;29;20040;-85
2021/07/18 11:56:59;;;;;;;0.22;0.00;;;31.10;43.40;;;;;;4917170;29;20044;-86
2021/07/18 11:59:25;;;;;;;0.10;0.00;;;31.00;43.20;;;;;;4917976;28;20516;-85
2021/07/18 12:01:53;;;;;;;0.00;0.00;;;31.00;43.20;;;;;;4917099;28;20402;-86
2021/07/18 12:04:23;;;;;;;0.00;0.00;;;31.00;43.20;;;;;;4918026;29;20035;-86
2021/07/18 12:07:12;;;;;;;0.20;0.10;;;31.00;43.00;;;;;;4917977;28;20411;-85
2021/07/18 12:09:42;;;;;;;1.45;0.20;;;31.10;42.80;;;;;;4917394;29;20051;-87
2021/07/18 12:12:09;;;;;;;;;;;31.20;42.60;;;;;;4916556;29;20039;-84
2021/07/18 12:14:35;;;;;;;1.30;0.08;;;31.20;42.80;;;;;;4917207;29;19910;-86
2021/07/18 12:17:03;;;;;;;0.75;0.35;;;31.30;42.70;;;;;;4931391;28;20051;-86
2021/07/18 12:19:30;;;;;;;0.65;0.00;;;31.50;42.50;;;;;;4917988;29;20031;-85
2021/07/18 12:21:57;;;;;;;1.15;0.08;;;31.50;42.00;;;;;;4917250;29;20032;-87
2021/07/18 12:24:25;;;;;;;0.25;0.08;;;31.40;41.80;;;;;;4913129;29;20044;-85
2021/07/18 12:26:57;;;;;;;4.28;0.08;;;31.30;41.70;;;;;;4908657;29;20067;-85
2021/07/18 12:29:24;;;;;;;0.30;0.10;;;31.30;41.80;;;;;;4917119;29;20032;-85
2021/07/18 12:31:51;;;;;;;0.00;0.00;;;31.40;41.60;;;;;;4931006;28;20032;-85
2021/07/18 12:34:17;;;;;;;0.52;0.10;;;31.30;41.30;;;;;;4948195;28;20403;-86
2021/07/18 12:36:53;;;;;;;0.28;0.10;;;31.40;41.50;;;;;;4917207;29;20028;-87
2021/07/18 12:39:19;;;;;;;0.00;0.00;;;31.40;41.40;;;;;;4946656;29;20055;-86
2021/07/18 12:41:45;;;;;;;0.00;0.00;;;31.30;41.40;;;;;;4929863;29;20036;-87
2021/07/18 12:44:15;;;;;;;0.22;0.00;;;31.40;41.40;;;;;;4931584;29;20032;-86
2021/07/18 12:46:43;;;;;;;0.00;0.00;;;31.50;41.50;;;;;;4913826;28;20049;-86
2021/07/18 12:49:11;;;;;;;0.00;0.00;;;31.50;41.30;;;;;;4915355;29;20024;-86
2021/07/18 12:51:37;;;;;;;0.00;0.00;;;31.60;41.20;;;;;;4911868;29;20036;-85